sensor_id;sensor_type;location;lat;lon;timestamp;pressure;altitude;pressure_sealevel;temperature;humidity
72116;BME280;59991;52.140;5.428;2022-08-25T00:00:23;101767.28;;;22.34;73.63
72116;BME280;59991;52.140;5.428;2022-08-25T00:01:18;101770.50;;;22.32;73.47
72116;BME280;59991;52.140;5.428;2022-08-25T00:02:08;101767.38;;;22.30;73.35
72116;BME280;59991;52.140;5.428;2022-08-25T00:02:41;101761.06;;;22.30;73.52
72116;BME280;59991;52.140;5.428;2022-08-25T00:03:26;101763.06;;;22.29;73.89
72116;BME280;59991;52.140;5.428;2022-08-25T00:04:09;101776.16;;;22.29;74.04
72116;BME280;59991;52.140;5.428;2022-08-25T00:04:41;101768.25;;;22.27;74.08
72116;BME280;59991;52.140;5.428;2022-08-25T00:05:29;101773.03;;;22.27;73.48
72116;BME280;59991;52.140;5.428;2022-08-25T00:06:05;101761.13;;;22.26;74.10
72116;BME280;59991;52.140;5.428;2022-08-25T00:06:41;101769.47;;;22.26;73.73
72116;BME280;59991;52.140;5.428;2022-08-25T00:07:13;101761.13;;;22.26;74.12
72116;BME280;59991;52.140;5.428;2022-08-25T00:08:07;101765.91;;;22.26;73.64
72116;BME280;59991;52.140;5.428;2022-08-25T00:08:40;101769.91;;;22.25;74.01
72116;BME280;59991;52.140;5.428;2022-08-25T00:09:14;101761.22;;;22.23;73.60
72116;BME280;59991;52.140;5.428;2022-08-25T00:09:46;101763.22;;;22.22;73.94
72116;BME280;59991;52.140;5.428;2022-08-25T00:10:18;101763.66;;;22.21;74.07
72116;BME280;59991;52.140;5.428;2022-08-25T00:10:50;101758.53;;;22.19;74.25
72116;BME280;59991;52.140;5.428;2022-08-25T00:11:35;101768.44;;;22.20;73.71
72116;BME280;59991;52.140;5.428;2022-08-25T00:12:06;101758.97;;;22.18;74.38
72116;BME280;59991;52.140;5.428;2022-08-25T00:12:38;101760.19;;;22.17;74.16
72116;BME280;59991;52.140;5.428;2022-08-25T00:13:10;101756.63;;;22.16;73.89
72116;BME280;59991;52.140;5.428;2022-08-25T00:13:43;101772.06;;;22.17;74.33
72116;BME280;59991;52.140;5.428;2022-08-25T00:14:20;101755.06;;;22.15;73.85
72116;BME280;59991;52.140;5.428;2022-08-25T00:14:52;101761.38;;;22.16;74.09
72116;BME280;59991;52.140;5.428;2022-08-25T00:15:24;101758.59;;;22.16;74.37
72116;BME280;59991;52.140;5.428;2022-08-25T00:15:55;101766.50;;;22.17;74.14
72116;BME280;59991;52.140;5.428;2022-08-25T00:16:28;101770.50;;;22.16;74.01
72116;BME280;59991;52.140;5.428;2022-08-25T00:17:02;101766.94;;;22.16;74.05
72116;BME280;59991;52.140;5.428;2022-08-25T00:17:33;101762.16;;;22.16;74.27
72116;BME280;59991;52.140;5.428;2022-08-25T00:18:05;101759.81;;;22.15;73.97
72116;BME280;59991;52.140;5.428;2022-08-25T00:18:52;101765.38;;;22.15;74.61
72116;BME280;59991;52.140;5.428;2022-08-25T00:19:41;101759.94;;;22.11;74.91
72116;BME280;59991;52.140;5.428;2022-08-25T00:20:12;101763.94;;;22.10;74.43
72116;BME280;59991;52.140;5.428;2022-08-25T00:20:46;101758.03;;;22.08;74.84
72116;BME280;59991;52.140;5.428;2022-08-25T00:21:20;101757.25;;;22.08;74.65
72116;BME280;59991;52.140;5.428;2022-08-25T00:21:52;101758.47;;;22.07;74.81
72116;BME280;59991;52.140;5.428;2022-08-25T00:22:23;101750.56;;;22.05;74.53
72116;BME280;59991;52.140;5.428;2022-08-25T00:22:54;101756.13;;;22.05;74.76
72116;BME280;59991;52.140;5.428;2022-08-25T00:23:26;101751.00;;;22.03;74.61
72116;BME280;59991;52.140;5.428;2022-08-25T00:23:58;101748.22;;;22.03;74.73
72116;BME280;59991;52.140;5.428;2022-08-25T00:24:32;101747.44;;;22.03;75.22
72116;BME280;59991;52.140;5.428;2022-08-25T00:25:04;101758.53;;;22.03;74.30
72116;BME280;59991;52.140;5.428;2022-08-25T00:25:35;101751.00;;;22.03;74.26
72116;BME280;59991;52.140;5.428;2022-08-25T00:26:08;101756.53;;;22.03;74.67
72116;BME280;59991;52.140;5.428;2022-08-25T00:26:42;101759.31;;;22.03;74.97
72116;BME280;59991;52.140;5.428;2022-08-25T00:27:13;101752.19;;;22.02;74.61
72116;BME280;59991;52.140;5.428;2022-08-25T00:27:45;101760.53;;;22.02;74.27
72116;BME280;59991;52.140;5.428;2022-08-25T00:28:18;101751.41;;;22.02;74.15
72116;BME280;59991;52.140;5.428;2022-08-25T00:28:49;101748.22;;;22.03;73.97
72116;BME280;59991;52.140;5.428;2022-08-25T00:29:25;101753.75;;;22.03;74.70
72116;BME280;59991;52.140;5.428;2022-08-25T00:29:56;101758.19;;;22.01;74.24
72116;BME280;59991;52.140;5.428;2022-08-25T00:30:28;101757.75;;;22.02;74.24
72116;BME280;59991;52.140;5.428;2022-08-25T00:31:00;101761.75;;;22.01;73.99
72116;BME280;59991;52.140;5.428;2022-08-25T00:31:32;101748.69;;;21.98;74.87
72116;BME280;59991;52.140;5.428;2022-08-25T00:32:09;101751.47;;;21.98;74.78
72116;BME280;59991;52.140;5.428;2022-08-25T00:32:40;101756.25;;;21.98;74.20
72116;BME280;59991;52.140;5.428;2022-08-25T00:33:19;101753.91;;;21.96;74.69
72116;BME280;59991;52.140;5.428;2022-08-25T00:33:51;101755.13;;;21.95;74.82
72116;BME280;59991;52.140;5.428;2022-08-25T00:34:28;101754.31;;;21.95;74.87
72116;BME280;59991;52.140;5.428;2022-08-25T00:34:59;101751.56;;;21.95;75.18
72116;BME280;59991;52.140;5.428;2022-08-25T00:35:31;101753.22;;;21.92;75.24
72116;BME280;59991;52.140;5.428;2022-08-25T00:36:03;101750.78;;;21.94;75.18
72116;BME280;59991;52.140;5.428;2022-08-25T00:36:35;101752.00;;;21.93;75.13
72116;BME280;59991;52.140;5.428;2022-08-25T00:37:07;101749.25;;;21.93;75.09
72116;BME280;59991;52.140;5.428;2022-08-25T00:37:58;101752.00;;;21.93;74.69
72116;BME280;59991;52.140;5.428;2022-08-25T00:38:29;101751.66;;;21.91;74.59
72116;BME280;59991;52.140;5.428;2022-08-25T00:39:01;101749.31;;;21.90;74.94
72116;BME280;59991;52.140;5.428;2022-08-25T00:39:33;101748.53;;;21.89;74.51
72116;BME280;59991;52.140;5.428;2022-08-25T00:40:05;101750.09;;;21.90;74.72
72116;BME280;59991;52.140;5.428;2022-08-25T00:40:39;101758.84;;;21.89;74.59
72116;BME280;59991;52.140;5.428;2022-08-25T00:42:04;101756.50;;;21.87;74.76
72116;BME280;59991;52.140;5.428;2022-08-25T00:42:46;101753.38;;;21.85;74.84
72116;BME280;59991;52.140;5.428;2022-08-25T00:43:17;101752.59;;;21.85;75.18
72116;BME280;59991;52.140;5.428;2022-08-25T00:43:56;101754.59;;;21.84;75.04
72116;BME280;59991;52.140;5.428;2022-08-25T00:44:29;101752.25;;;21.83;74.97
72116;BME280;59991;52.140;5.428;2022-08-25T00:45:01;101748.25;;;21.84;74.64
72116;BME280;59991;52.140;5.428;2022-08-25T00:45:34;101753.03;;;21.83;74.91
72116;BME280;59991;52.140;5.428;2022-08-25T00:46:14;101753.47;;;21.82;75.30
72116;BME280;59991;52.140;5.428;2022-08-25T00:47:05;101752.69;;;21.81;75.11
72116;BME280;59991;52.140;5.428;2022-08-25T00:47:36;101753.13;;;21.80;75.12
72116;BME280;59991;52.140;5.428;2022-08-25T00:48:08;101749.97;;;21.78;75.27
72116;BME280;59991;52.140;5.428;2022-08-25T00:48:40;101749.19;;;21.77;75.39
72116;BME280;59991;52.140;5.428;2022-08-25T00:49:55;101751.97;;;21.77;75.54
72116;BME280;59991;52.140;5.428;2022-08-25T00:50:30;101747.31;;;21.74;75.72
72116;BME280;59991;52.140;5.428;2022-08-25T00:51:03;101756.84;;;21.73;74.94
72116;BME280;59991;52.140;5.428;2022-08-25T00:51:49;101758.06;;;21.72;75.59
72116;BME280;59991;52.140;5.428;2022-08-25T00:52:24;101754.16;;;21.69;75.95
72116;BME280;59991;52.140;5.428;2022-08-25T00:52:59;101749.38;;;21.70;75.39
72116;BME280;59991;52.140;5.428;2022-08-25T00:53:32;101749.03;;;21.68;76.01
72116;BME280;59991;52.140;5.428;2022-08-25T00:54:24;101747.13;;;21.65;75.98
72116;BME280;59991;52.140;5.428;2022-08-25T00:55:19;101752.25;;;21.66;75.36
72116;BME280;59991;52.140;5.428;2022-08-25T00:55:52;101743.22;;;21.62;75.75
72116;BME280;59991;52.140;5.428;2022-08-25T00:56:43;101753.09;;;21.63;75.55
72116;BME280;59991;52.140;5.428;2022-08-25T00:57:18;101751.53;;;21.62;75.36
72116;BME280;59991;52.140;5.428;2022-08-25T00:58:11;101750.75;;;21.62;75.61
72116;BME280;59991;52.140;5.428;2022-08-25T00:58:44;101748.41;;;21.60;76.05
72116;BME280;59991;52.140;5.428;2022-08-25T00:59:21;101753.94;;;21.60;75.61
72116;BME280;59991;52.140;5.428;2022-08-25T00:59:53;101751.19;;;21.60;75.89
72116;BME280;59991;52.140;5.428;2022-08-25T01:00:36;101743.72;;;21.57;76.00
72116;BME280;59991;52.140;5.428;2022-08-25T01:01:08;101746.84;;;21.59;76.07
72116;BME280;59991;52.140;5.428;2022-08-25T01:01:39;101747.69;;;21.56;76.15
72116;BME280;59991;52.140;5.428;2022-08-25T01:02:12;101752.47;;;21.56;76.16
72116;BME280;59991;52.140;5.428;2022-08-25T01:02:45;101755.25;;;21.56;75.72
72116;BME280;59991;52.140;5.428;2022-08-25T01:03:18;101751.69;;;21.55;75.91
72116;BME280;59991;52.140;5.428;2022-08-25T01:03:50;101750.16;;;21.54;76.07
72116;BME280;59991;52.140;5.428;2022-08-25T01:04:21;101749.38;;;21.54;76.48
72116;BME280;59991;52.140;5.428;2022-08-25T01:04:53;101747.00;;;21.52;76.29
72116;BME280;59991;52.140;5.428;2022-08-25T01:05:26;101749.78;;;21.52;76.06
72116;BME280;59991;52.140;5.428;2022-08-25T01:06:50;101751.78;;;21.52;75.83
72116;BME280;59991;52.140;5.428;2022-08-25T01:07:47;101747.88;;;21.49;76.38
72116;BME280;59991;52.140;5.428;2022-08-25T01:08:38;101749.50;;;21.47;76.42
72116;BME280;59991;52.140;5.428;2022-08-25T01:09:12;101751.16;;;21.44;76.59
72116;BME280;59991;52.140;5.428;2022-08-25T01:09:45;101741.25;;;21.43;76.68
72116;BME280;59991;52.140;5.428;2022-08-25T01:10:18;101743.25;;;21.43;76.55
72116;BME280;59991;52.140;5.428;2022-08-25T01:11:09;101750.00;;;21.42;76.39
72116;BME280;59991;52.140;5.428;2022-08-25T01:11:42;101752.78;;;21.42;76.59
72116;BME280;59991;52.140;5.428;2022-08-25T01:12:15;101748.44;;;21.41;76.73
72116;BME280;59991;52.140;5.428;2022-08-25T01:12:46;101747.66;;;21.40;76.68
72116;BME280;59991;52.140;5.428;2022-08-25T01:13:25;101751.66;;;21.39;76.47
72116;BME280;59991;52.140;5.428;2022-08-25T01:14:00;101755.22;;;21.40;76.28
72116;BME280;59991;52.140;5.428;2022-08-25T01:14:36;101749.31;;;21.37;76.60
72116;BME280;59991;52.140;5.428;2022-08-25T01:15:10;101756.41;;;21.38;75.88
72116;BME280;59991;52.140;5.428;2022-08-25T01:15:43;101748.97;;;21.35;75.94
72116;BME280;59991;52.140;5.428;2022-08-25T01:16:16;101747.31;;;21.38;76.14
72116;BME280;59991;52.140;5.428;2022-08-25T01:16:47;101749.31;;;21.37;76.32
72116;BME280;59991;52.140;5.428;2022-08-25T01:17:24;101749.31;;;21.37;76.00
72116;BME280;59991;52.140;5.428;2022-08-25T01:17:58;101755.28;;;21.36;76.11
72116;BME280;59991;52.140;5.428;2022-08-25T01:18:42;101747.75;;;21.36;76.06
72116;BME280;59991;52.140;5.428;2022-08-25T01:19:14;101747.41;;;21.34;75.75
72116;BME280;59991;52.140;5.428;2022-08-25T01:19:46;101743.44;;;21.35;76.49
72116;BME280;59991;52.140;5.428;2022-08-25T01:20:24;101752.97;;;21.34;76.08
72116;BME280;59991;52.140;5.428;2022-08-25T01:20:59;101739.09;;;21.34;76.29
72116;BME280;59991;52.140;5.428;2022-08-25T01:21:37;101743.84;;;21.34;76.28
72116;BME280;59991;52.140;5.428;2022-08-25T01:22:09;101741.50;;;21.32;76.08
72116;BME280;59991;52.140;5.428;2022-08-25T01:23:32;101737.16;;;21.31;76.22
72116;BME280;59991;52.140;5.428;2022-08-25T01:25:01;101736.81;;;21.29;76.26
72116;BME280;59991;52.140;5.428;2022-08-25T01:26:30;101738.09;;;21.25;76.19
72116;BME280;59991;52.140;5.428;2022-08-25T01:27:02;101733.75;;;21.24;76.07
72116;BME280;59991;52.140;5.428;2022-08-25T01:27:34;101735.75;;;21.23;75.91
72116;BME280;59991;52.140;5.428;2022-08-25T01:28:05;101734.97;;;21.23;76.10
72116;BME280;59991;52.140;5.428;2022-08-25T01:28:39;101736.16;;;21.22;76.06
72116;BME280;59991;52.140;5.428;2022-08-25T01:29:31;101736.59;;;21.20;76.02
72116;BME280;59991;52.140;5.428;2022-08-25T01:30:03;101741.75;;;21.18;76.24
72116;BME280;59991;52.140;5.428;2022-08-25T01:30:53;101739.78;;;21.19;75.99
72116;BME280;59991;52.140;5.428;2022-08-25T01:31:26;101732.66;;;21.18;76.30
72116;BME280;59991;52.140;5.428;2022-08-25T01:32:01;101736.22;;;21.18;76.35
72116;BME280;59991;52.140;5.428;2022-08-25T01:32:51;101740.19;;;21.17;76.38
72116;BME280;59991;52.140;5.428;2022-08-25T01:33:22;101732.31;;;21.16;76.69
72116;BME280;59991;52.140;5.428;2022-08-25T01:33:55;101737.09;;;21.15;76.71
72116;BME280;59991;52.140;5.428;2022-08-25T01:34:29;101743.84;;;21.14;76.13
72116;BME280;59991;52.140;5.428;2022-08-25T01:35:01;101738.31;;;21.14;75.95
72116;BME280;59991;52.140;5.428;2022-08-25T01:35:34;101741.06;;;21.14;76.42
72116;BME280;59991;52.140;5.428;2022-08-25T01:36:06;101740.28;;;21.14;76.57
72116;BME280;59991;52.140;5.428;2022-08-25T01:36:39;101741.06;;;21.14;76.27
72116;BME280;59991;52.140;5.428;2022-08-25T01:37:12;101735.94;;;21.13;77.04
72116;BME280;59991;52.140;5.428;2022-08-25T01:37:44;101739.50;;;21.13;75.47
72116;BME280;59991;52.140;5.428;2022-08-25T01:38:17;101737.16;;;21.12;76.03
72116;BME280;59991;52.140;5.428;2022-08-25T01:38:53;101737.16;;;21.12;76.13
72116;BME280;59991;52.140;5.428;2022-08-25T01:39:27;101735.16;;;21.12;76.33
72116;BME280;59991;52.140;5.428;2022-08-25T01:40:17;101739.94;;;21.12;76.24
72116;BME280;59991;52.140;5.428;2022-08-25T01:40:49;101736.03;;;21.09;76.39
72116;BME280;59991;52.140;5.428;2022-08-25T01:41:35;101742.00;;;21.08;76.38
72116;BME280;59991;52.140;5.428;2022-08-25T01:43:45;101734.94;;;21.03;76.73
72116;BME280;59991;52.140;5.428;2022-08-25T01:44:17;101741.28;;;21.03;76.16
72116;BME280;59991;52.140;5.428;2022-08-25T01:44:49;101737.72;;;21.03;76.94
72116;BME280;59991;52.140;5.428;2022-08-25T01:45:20;101745.25;;;21.02;76.92
72116;BME280;59991;52.140;5.428;2022-08-25T01:45:52;101737.72;;;21.03;76.77
72116;BME280;59991;52.140;5.428;2022-08-25T01:46:23;101740.13;;;21.01;76.66
72116;BME280;59991;52.140;5.428;2022-08-25T01:46:58;101744.47;;;21.02;76.88
72116;BME280;59991;52.140;5.428;2022-08-25T01:47:30;101737.38;;;21.01;76.17
72116;BME280;59991;52.140;5.428;2022-08-25T01:48:02;101737.38;;;21.01;76.00
72116;BME280;59991;52.140;5.428;2022-08-25T01:48:35;101729.84;;;21.01;76.30
72116;BME280;59991;52.140;5.428;2022-08-25T01:49:25;101742.91;;;21.01;75.93
72116;BME280;59991;52.140;5.428;2022-08-25T01:49:56;101740.13;;;21.01;76.51
72116;BME280;59991;52.140;5.428;2022-08-25T01:50:28;101730.69;;;20.98;76.22
72116;BME280;59991;52.140;5.428;2022-08-25T01:50:59;101731.47;;;20.99;75.97
72116;BME280;59991;52.140;5.428;2022-08-25T01:51:55;101732.25;;;20.99;75.68
72116;BME280;59991;52.140;5.428;2022-08-25T01:53:22;101734.66;;;20.97;75.76
72116;BME280;59991;52.140;5.428;2022-08-25T01:53:54;101733.91;;;20.97;76.46
72116;BME280;59991;52.140;5.428;2022-08-25T01:54:25;101732.34;;;20.96;75.78
72116;BME280;59991;52.140;5.428;2022-08-25T01:54:57;101735.91;;;20.96;76.05
72116;BME280;59991;52.140;5.428;2022-08-25T01:55:29;101735.91;;;20.96;75.82
72116;BME280;59991;52.140;5.428;2022-08-25T01:56:09;101724.44;;;20.94;76.32
72116;BME280;59991;52.140;5.428;2022-08-25T01:56:41;101734.75;;;20.94;76.47
72116;BME280;59991;52.140;5.428;2022-08-25T01:57:14;101734.41;;;20.92;76.36
72116;BME280;59991;52.140;5.428;2022-08-25T01:57:45;101736.38;;;20.91;76.36
72116;BME280;59991;52.140;5.428;2022-08-25T01:58:21;101734.03;;;20.90;76.40
72116;BME280;59991;52.140;5.428;2022-08-25T01:59:16;101734.81;;;20.90;75.45
72116;BME280;59991;52.140;5.428;2022-08-25T02:00:09;101725.38;;;20.88;75.99
72116;BME280;59991;52.140;5.428;2022-08-25T02:00:45;101730.56;;;20.86;76.22
72116;BME280;59991;52.140;5.428;2022-08-25T02:01:19;101727.00;;;20.85;76.54
72116;BME280;59991;52.140;5.428;2022-08-25T02:01:51;101730.63;;;20.82;76.47
72116;BME280;59991;52.140;5.428;2022-08-25T02:02:30;101726.63;;;20.83;76.06
72116;BME280;59991;52.140;5.428;2022-08-25T02:03:03;101730.19;;;20.84;76.39
72116;BME280;59991;52.140;5.428;2022-08-25T02:03:44;101731.41;;;20.83;76.13
72116;BME280;59991;52.140;5.428;2022-08-25T02:04:17;101728.63;;;20.83;75.73
72116;BME280;59991;52.140;5.428;2022-08-25T02:04:52;101728.63;;;20.83;76.00
72116;BME280;59991;52.140;5.428;2022-08-25T02:05:23;101731.81;;;20.81;75.79
72116;BME280;59991;52.140;5.428;2022-08-25T02:06:25;101733.03;;;20.80;75.75
72116;BME280;59991;52.140;5.428;2022-08-25T02:08:42;101730.34;;;20.77;76.39
72116;BME280;59991;52.140;5.428;2022-08-25T02:09:15;101733.53;;;20.75;76.28
72116;BME280;59991;52.140;5.428;2022-08-25T02:09:47;101733.53;;;20.75;75.96
72116;BME280;59991;52.140;5.428;2022-08-25T02:10:18;101732.75;;;20.75;76.11
72116;BME280;59991;52.140;5.428;2022-08-25T02:10:51;101727.22;;;20.75;75.85
72116;BME280;59991;52.140;5.428;2022-08-25T02:11:24;101724.88;;;20.73;76.10
72116;BME280;59991;52.140;5.428;2022-08-25T02:11:56;101724.88;;;20.73;75.58
72116;BME280;59991;52.140;5.428;2022-08-25T02:12:27;101730.41;;;20.73;76.21
72116;BME280;59991;52.140;5.428;2022-08-25T02:12:59;101728.44;;;20.74;75.87
72116;BME280;59991;52.140;5.428;2022-08-25T02:13:30;101733.19;;;20.73;76.41
72116;BME280;59991;52.140;5.428;2022-08-25T02:14:03;101730.41;;;20.73;75.87
72116;BME280;59991;52.140;5.428;2022-08-25T02:14:35;101723.31;;;20.72;76.26
72116;BME280;59991;52.140;5.428;2022-08-25T02:15:25;101720.53;;;20.72;75.46
72116;BME280;59991;52.140;5.428;2022-08-25T02:15:58;101730.84;;;20.72;76.25
72116;BME280;59991;52.140;5.428;2022-08-25T02:16:35;101728.06;;;20.72;76.03
72116;BME280;59991;52.140;5.428;2022-08-25T02:17:07;101726.50;;;20.71;75.15
72116;BME280;59991;52.140;5.428;2022-08-25T02:17:39;101725.72;;;20.70;75.39
72116;BME280;59991;52.140;5.428;2022-08-25T02:18:11;101724.16;;;20.69;75.53
72116;BME280;59991;52.140;5.428;2022-08-25T02:18:43;101728.84;;;20.72;76.03
72116;BME280;59991;52.140;5.428;2022-08-25T02:19:17;101726.06;;;20.72;75.82
72116;BME280;59991;52.140;5.428;2022-08-25T02:19:49;101723.72;;;20.71;75.71
72116;BME280;59991;52.140;5.428;2022-08-25T02:20:21;101725.72;;;20.70;75.51
72116;BME280;59991;52.140;5.428;2022-08-25T02:20:54;101729.28;;;20.71;76.09
72116;BME280;59991;52.140;5.428;2022-08-25T02:21:25;101726.50;;;20.71;75.34
72116;BME280;59991;52.140;5.428;2022-08-25T02:22:14;101730.47;;;20.69;75.63
72116;BME280;59991;52.140;5.428;2022-08-25T02:22:47;101725.34;;;20.68;75.92
72116;BME280;59991;52.140;5.428;2022-08-25T02:23:27;101728.13;;;20.68;75.84
72116;BME280;59991;52.140;5.428;2022-08-25T02:23:58;101727.34;;;20.67;75.74
72116;BME280;59991;52.140;5.428;2022-08-25T02:24:31;101733.66;;;20.68;75.90
72116;BME280;59991;52.140;5.428;2022-08-25T02:25:03;101728.56;;;20.66;75.04
72116;BME280;59991;52.140;5.428;2022-08-25T02:25:36;101728.56;;;20.66;75.05
72116;BME280;59991;52.140;5.428;2022-08-25T02:26:25;101731.31;;;20.66;75.70
72116;BME280;59991;52.140;5.428;2022-08-25T02:26:57;101732.53;;;20.65;76.01
72116;BME280;59991;52.140;5.428;2022-08-25T02:27:29;101728.19;;;20.64;75.54
72116;BME280;59991;52.140;5.428;2022-08-25T02:28:00;101730.53;;;20.66;75.43
72116;BME280;59991;52.140;5.428;2022-08-25T02:28:50;101743.19;;;20.67;75.64
72116;BME280;59991;52.140;5.428;2022-08-25T02:29:22;101736.09;;;20.66;74.76
72116;BME280;59991;52.140;5.428;2022-08-25T02:29:54;101725.00;;;20.66;74.93
72116;BME280;59991;52.140;5.428;2022-08-25T02:30:26;101729.75;;;20.65;75.29
72116;BME280;59991;52.140;5.428;2022-08-25T02:30:57;101726.97;;;20.65;75.90
72116;BME280;59991;52.140;5.428;2022-08-25T02:31:32;101728.97;;;20.65;75.18
72116;BME280;59991;52.140;5.428;2022-08-25T02:32:04;101726.97;;;20.65;75.17
72116;BME280;59991;52.140;5.428;2022-08-25T02:33:45;101727.41;;;20.64;75.49
72116;BME280;59991;52.140;5.428;2022-08-25T02:34:16;101726.63;;;20.63;75.74
72116;BME280;59991;52.140;5.428;2022-08-25T02:34:48;101725.06;;;20.62;74.90
72116;BME280;59991;52.140;5.428;2022-08-25T02:35:20;101727.84;;;20.62;75.27
72116;BME280;59991;52.140;5.428;2022-08-25T02:36:41;101726.63;;;20.63;75.15
72116;BME280;59991;52.140;5.428;2022-08-25T02:37:14;101721.88;;;20.64;74.76
72116;BME280;59991;52.140;5.428;2022-08-25T02:37:45;101725.06;;;20.62;74.31
72116;BME280;59991;52.140;5.428;2022-08-25T02:38:16;101727.03;;;20.62;75.07
72116;BME280;59991;52.140;5.428;2022-08-25T02:39:09;101722.28;;;20.62;74.63
72116;BME280;59991;52.140;5.428;2022-08-25T02:39:40;101725.06;;;20.62;74.81
72116;BME280;59991;52.140;5.428;2022-08-25T02:40:30;101728.19;;;20.64;74.85
72116;BME280;59991;52.140;5.428;2022-08-25T02:41:09;101720.72;;;20.61;74.38
72116;BME280;59991;52.140;5.428;2022-08-25T02:41:42;101721.16;;;20.60;74.82
72116;BME280;59991;52.140;5.428;2022-08-25T02:42:32;101720.72;;;20.61;74.25
72116;BME280;59991;52.140;5.428;2022-08-25T02:43:04;101714.06;;;20.59;74.69
72116;BME280;59991;52.140;5.428;2022-08-25T02:43:36;101721.59;;;20.58;74.43
72116;BME280;59991;52.140;5.428;2022-08-25T02:44:08;101722.38;;;20.59;73.90
72116;BME280;59991;52.140;5.428;2022-08-25T02:44:39;101712.06;;;20.59;74.74
72116;BME280;59991;52.140;5.428;2022-08-25T02:45:11;101714.81;;;20.59;74.28
72116;BME280;59991;52.140;5.428;2022-08-25T02:45:42;101720.38;;;20.59;74.65
72116;BME280;59991;52.140;5.428;2022-08-25T02:46:15;101714.81;;;20.59;74.33
72116;BME280;59991;52.140;5.428;2022-08-25T02:46:48;101713.28;;;20.58;74.35
72116;BME280;59991;52.140;5.428;2022-08-25T02:47:20;101706.97;;;20.58;73.76
72116;BME280;59991;52.140;5.428;2022-08-25T02:47:57;101710.50;;;20.58;74.61
72116;BME280;59991;52.140;5.428;2022-08-25T02:48:28;101708.16;;;20.57;73.76
72116;BME280;59991;52.140;5.428;2022-08-25T02:49:00;101705.41;;;20.57;73.95
72116;BME280;59991;52.140;5.428;2022-08-25T02:49:32;101717.59;;;20.59;73.98
72116;BME280;59991;52.140;5.428;2022-08-25T02:50:04;101711.28;;;20.59;73.63
72116;BME280;59991;52.140;5.428;2022-08-25T02:50:53;101712.84;;;20.60;74.29
72116;BME280;59991;52.140;5.428;2022-08-25T02:51:26;101713.28;;;20.58;74.25
72116;BME280;59991;52.140;5.428;2022-08-25T02:52:00;101714.50;;;20.57;74.37
72116;BME280;59991;52.140;5.428;2022-08-25T02:52:31;101710.16;;;20.56;73.57
72116;BME280;59991;52.140;5.428;2022-08-25T02:53:03;101717.25;;;20.57;74.35
72116;BME280;59991;52.140;5.428;2022-08-25T02:53:36;101716.47;;;20.57;73.95
72116;BME280;59991;52.140;5.428;2022-08-25T02:54:26;101714.50;;;20.57;74.27
72116;BME280;59991;52.140;5.428;2022-08-25T02:54:58;101715.69;;;20.56;73.59
72116;BME280;59991;52.140;5.428;2022-08-25T02:55:30;101710.50;;;20.58;73.43
72116;BME280;59991;52.140;5.428;2022-08-25T02:56:55;101708.94;;;20.57;74.28
72116;BME280;59991;52.140;5.428;2022-08-25T02:57:27;101709.38;;;20.56;73.92
72116;BME280;59991;52.140;5.428;2022-08-25T02:57:58;101714.13;;;20.55;73.36
72116;BME280;59991;52.140;5.428;2022-08-25T02:58:30;101708.22;;;20.53;73.86
72116;BME280;59991;52.140;5.428;2022-08-25T02:59:02;101709.00;;;20.54;73.51
72116;BME280;59991;52.140;5.428;2022-08-25T02:59:34;101708.22;;;20.53;73.80
72116;BME280;59991;52.140;5.428;2022-08-25T03:00:08;101713.00;;;20.53;73.98
72116;BME280;59991;52.140;5.428;2022-08-25T03:00:42;101701.91;;;20.53;73.69
72116;BME280;59991;52.140;5.428;2022-08-25T03:01:15;101705.47;;;20.53;74.12
72116;BME280;59991;52.140;5.428;2022-08-25T03:01:46;101704.66;;;20.53;73.89
72116;BME280;59991;52.140;5.428;2022-08-25T03:02:18;101704.66;;;20.53;73.41
72116;BME280;59991;52.140;5.428;2022-08-25T03:03:07;101703.53;;;20.50;73.35
72116;BME280;59991;52.140;5.428;2022-08-25T03:03:39;101705.09;;;20.51;73.11
72116;BME280;59991;52.140;5.428;2022-08-25T03:04:13;101700.41;;;20.48;73.33
72116;BME280;59991;52.140;5.428;2022-08-25T03:04:44;101704.00;;;20.45;74.02
72116;BME280;59991;52.140;5.428;2022-08-25T03:05:16;101704.78;;;20.46;73.69
72116;BME280;59991;52.140;5.428;2022-08-25T03:05:48;101700.03;;;20.46;73.73
72116;BME280;59991;52.140;5.428;2022-08-25T03:06:21;101706.38;;;20.47;73.24
72116;BME280;59991;52.140;5.428;2022-08-25T03:06:53;101705.16;;;20.48;73.99
72116;BME280;59991;52.140;5.428;2022-08-25T03:07:43;101704.38;;;20.47;73.70
72116;BME280;59991;52.140;5.428;2022-08-25T03:08:15;101706.00;;;20.45;73.11
72116;BME280;59991;52.140;5.428;2022-08-25T03:08:46;101698.47;;;20.45;73.77
72116;BME280;59991;52.140;5.428;2022-08-25T03:09:17;101702.44;;;20.44;73.90
72116;BME280;59991;52.140;5.428;2022-08-25T03:09:49;101698.47;;;20.45;73.81
72116;BME280;59991;52.140;5.428;2022-08-25T03:10:20;101703.59;;;20.47;73.40
72116;BME280;59991;52.140;5.428;2022-08-25T03:10:52;101696.84;;;20.48;73.11
72116;BME280;59991;52.140;5.428;2022-08-25T03:11:23;101698.06;;;20.47;73.45
72116;BME280;59991;52.140;5.428;2022-08-25T03:11:56;101696.84;;;20.48;73.04
72116;BME280;59991;52.140;5.428;2022-08-25T03:12:28;101701.19;;;20.49;73.19
72116;BME280;59991;52.140;5.428;2022-08-25T03:12:59;101692.88;;;20.49;73.38
72116;BME280;59991;52.140;5.428;2022-08-25T03:13:31;101696.44;;;20.49;72.90
72116;BME280;59991;52.140;5.428;2022-08-25T03:14:07;101693.22;;;20.51;72.99
72116;BME280;59991;52.140;5.428;2022-08-25T03:14:57;101688.91;;;20.50;72.93
72116;BME280;59991;52.140;5.428;2022-08-25T03:15:28;101689.31;;;20.48;73.31
72116;BME280;59991;52.140;5.428;2022-08-25T03:16:01;101692.09;;;20.48;72.67
72116;BME280;59991;52.140;5.428;2022-08-25T03:16:33;101683.00;;;20.48;72.66